createdAt,value
2023-04-04T00:01:32.654Z,-11077.75
2023-04-04T00:04:38.748Z,-11084.63
2023-04-04T00:07:47.597Z,-11090.13
2023-04-04T00:11:00.717Z,-11083.22
2023-04-04T00:14:07.013Z,-11088.28
2023-04-04T00:17:13.188Z,-11084.91
2023-04-04T00:20:19.260Z,-11085.19
2023-04-04T00:23:25.330Z,-11092.66
2023-04-04T00:26:34.305Z,-11091.94
2023-04-04T00:29:40.895Z,-11091.38
2023-04-04T00:32:47.328Z,-11092.66
2023-04-04T00:35:53.691Z,-11089.69
2023-04-04T00:38:59.746Z,-11092.50
2023-04-04T00:42:08.338Z,-11092.09
2023-04-04T00:45:14.475Z,-11092.78
2023-04-04T00:48:24.561Z,-11091.94
2023-04-04T00:51:30.727Z,-11090.69
2023-04-04T00:54:37.512Z,-11090.13
2023-04-04T00:57:45.758Z,-11080.44
2023-04-04T01:00:52.269Z,-11086.59
2023-04-04T01:03:58.631Z,-11088.44
2023-04-04T01:07:05.642Z,-11082.81
2023-04-04T01:10:13.216Z,-11093.06
2023-04-04T01:13:22.160Z,-11093.63
2023-04-04T01:16:28.672Z,-11092.78
2023-04-04T01:19:38.266Z,-11093.63
2023-04-04T01:22:48.310Z,-11092.50
2023-04-04T01:26:04.119Z,-11088.72
2023-04-04T01:29:10.661Z,-11097.84
2023-04-04T01:32:21.167Z,-11094.03
2023-04-04T01:35:33.471Z,-11097.69
2023-04-04T01:38:49.153Z,-11093.91
2023-04-04T01:41:58.151Z,-11095.31
2023-04-04T01:45:07.184Z,-11093.06
2023-04-04T01:48:16.763Z,-11093.91
2023-04-04T01:51:23.963Z,-11096.16
2023-04-04T01:54:30.800Z,-11088.44
2023-04-04T01:57:38.674Z,-11088.56
2023-04-04T02:00:45.087Z,-11083.38
2023-04-04T02:03:51.219Z,-11091.94
2023-04-04T02:06:57.598Z,-11093.06
2023-04-04T02:10:03.957Z,-11086.75
2023-04-04T02:13:12.325Z,-11087.16
2023-04-04T02:16:19.832Z,-11092.22
2023-04-04T02:19:26.405Z,-11097.84
2023-04-04T02:22:32.804Z,-11099.81
2023-04-04T02:25:39.335Z,-11097.56
2023-04-04T02:28:47.624Z,-11091.66
2023-04-04T02:31:53.894Z,-11095.59
2023-04-04T02:35:00.459Z,-11096.44
2023-04-04T02:38:06.775Z,-11097.00
2023-04-04T02:41:14.512Z,-11089.41
2023-04-04T02:44:22.580Z,-11088.16
2023-04-04T02:47:28.978Z,-11088.56
2023-04-04T02:50:35.095Z,-11088.16
2023-04-04T02:53:41.604Z,-11094.59
2023-04-04T02:56:47.737Z,-11082.53
2023-04-04T02:59:55.562Z,-11087.03
2023-04-04T03:03:01.752Z,-11082.81
2023-04-04T03:06:08.193Z,-11089.00
2023-04-04T03:09:14.658Z,-11092.94
2023-04-04T03:12:22.600Z,-11086.31
2023-04-04T03:15:30.736Z,-11087.16
2023-04-04T03:18:37.340Z,-11096.72
2023-04-04T03:21:43.790Z,-11102.34
2023-04-04T03:24:50.097Z,-11103.47
2023-04-04T03:27:56.746Z,-11106.13
2023-04-04T03:31:07.130Z,-11084.34
2023-04-04T03:34:13.378Z,-11097.00
2023-04-04T03:37:19.609Z,-11098.81
2023-04-04T03:40:25.858Z,-11104.88
2023-04-04T03:43:32.745Z,-11108.22
2023-04-04T03:46:40.807Z,-11100.66
2023-04-04T03:49:47.044Z,-11107.13
2023-04-04T03:52:53.562Z,-11100.38
2023-04-04T03:56:00.987Z,-11102.62
2023-04-04T03:59:07.897Z,-11102.47
2023-04-04T04:02:15.666Z,-11100.78
2023-04-04T04:05:22.090Z,-11093.78
2023-04-04T04:08:28.719Z,-11097.13
2023-04-04T04:11:35.242Z,-11099.66
2023-04-04T04:14:41.763Z,-11103.31
2023-04-04T04:17:49.323Z,-11110.06
2023-04-04T04:20:59.428Z,-11112.72
2023-04-04T04:24:06.659Z,-11101.78
2023-04-04T04:27:13.226Z,-11105.84
2023-04-04T04:30:19.529Z,-11104.59
2023-04-04T04:33:31.106Z,-11101.78
2023-04-04T04:36:38.123Z,-11103.19
2023-04-04T04:39:44.632Z,-11107.81
2023-04-04T04:42:51.985Z,-11112.88
2023-04-04T04:45:59.834Z,-11106.00
2023-04-04T04:49:07.416Z,-11112.16
2023-04-04T04:52:15.886Z,-11118.63
2023-04-04T04:55:22.360Z,-11115.69
2023-04-04T04:58:28.854Z,-11111.31
2023-04-04T05:01:35.006Z,-11116.38
2023-04-04T05:04:45.130Z,-11119.19
2023-04-04T05:07:51.588Z,-11111.47
2023-04-04T05:10:58.292Z,-11110.19
2023-04-04T05:14:04.783Z,-11110.19
2023-04-04T05:17:11.026Z,-11113.56
2023-04-04T05:20:19.069Z,-11110.63
2023-04-04T05:23:25.662Z,-11116.38
2023-04-04T05:26:31.635Z,-11119.19
2023-04-04T05:29:37.765Z,-11121.16
2023-04-04T05:32:46.439Z,-11119.88
2023-04-04T05:35:54.424Z,-11123.69
2023-04-04T05:39:00.902Z,-11123.53
2023-04-04T05:42:07.458Z,-11127.91
2023-04-04T05:45:13.670Z,-11128.75
2023-04-04T05:48:19.970Z,-11132.66
2023-04-04T05:51:27.931Z,-11135.47
2023-04-04T05:54:34.335Z,-11142.22
2023-04-04T05:57:49.033Z,-11143.22
2023-04-04T06:00:55.104Z,-11145.88
2023-04-04T06:04:01.759Z,-11153.19
2023-04-04T06:07:09.541Z,-11149.25
2023-04-04T06:10:15.839Z,-11143.62
2023-04-04T06:13:21.973Z,-11151.22
2023-04-04T06:16:28.262Z,-11144.75
2023-04-04T06:19:34.637Z,-11145.03
2023-04-04T06:22:42.631Z,-11149.81
2023-04-04T06:25:49.588Z,-11160.91
2023-04-04T06:28:56.541Z,-11167.38
2023-04-04T06:32:03.067Z,-11132.38
2023-04-04T06:35:10.421Z,-11160.63
2023-04-04T06:38:18.412Z,-11169.22
2023-04-04T06:41:24.629Z,-11171.75
2023-04-04T06:44:31.021Z,-11159.78
2023-04-04T06:47:37.559Z,-11167.94
2023-04-04T06:50:44.048Z,-11172.31
2023-04-04T06:53:51.854Z,-11173.56
2023-04-04T06:56:58.459Z,-11176.22
2023-04-04T07:00:05.415Z,-11191.13
2023-04-04T07:03:11.919Z,-11179.31
2023-04-04T07:06:19.606Z,-11180.16
2023-04-04T07:09:29.544Z,-11178.19
2023-04-04T07:12:36.300Z,-11173.00
2023-04-04T07:15:43.962Z,-11174.41
2023-04-04T07:18:50.061Z,-11175.94
2023-04-04T07:21:56.209Z,-11168.94
2023-04-04T07:25:03.997Z,-11166.41
2023-04-04T07:28:13.362Z,-11163.59
2023-04-04T07:31:20.253Z,-11161.06
2023-04-04T07:34:27.117Z,-11158.53
2023-04-04T07:37:33.585Z,-11164.28
2023-04-04T07:40:41.735Z,-11167.25
2023-04-04T07:43:48.059Z,-11153.59
2023-04-04T07:47:06.493Z,-11159.38
2023-04-04T07:50:16.768Z,-11167.53
2023-04-04T07:53:23.733Z,-11171.31
2023-04-04T07:56:31.547Z,-11163.44
2023-04-04T07:59:38.086Z,-11170.91
2023-04-04T08:02:45.680Z,-11174.69
2023-04-04T08:05:52.324Z,-11172.31
2023-04-04T08:08:58.697Z,-11174.13
2023-04-04T08:12:06.964Z,-11166.13
2023-04-04T08:15:13.429Z,-11182.97
2023-04-04T08:18:19.701Z,-11180.16
2023-04-04T08:21:26.113Z,-11178.19
2023-04-04T08:24:32.728Z,-11189.72
2023-04-04T08:27:45.103Z,-11190.44
2023-04-04T08:30:53.986Z,-11192.53
2023-04-04T08:34:02.137Z,-11201.13
2023-04-04T08:37:08.705Z,-11181.16
2023-04-04T08:40:15.929Z,-11189.88
2023-04-04T08:43:25.975Z,-11206.88
2023-04-04T08:46:33.198Z,-11205.75
2023-04-04T08:49:42.606Z,-11216.16
2023-04-04T08:52:50.103Z,-11203.78
2023-04-04T08:55:58.167Z,-11226.28
2023-04-04T08:59:06.349Z,-11212.50
2023-04-04T09:02:19.087Z,-11212.78
2023-04-04T09:05:25.779Z,-11207.03
2023-04-04T09:08:32.534Z,-11209.97
2023-04-04T09:11:40.593Z,-11212.78
2023-04-04T09:14:52.089Z,-11224.03
2023-04-04T09:17:58.462Z,-11233.31
2023-04-04T09:21:11.318Z,-11233.03
2023-04-04T09:24:17.283Z,-11223.75
2023-04-04T09:27:23.991Z,-11227.13
2023-04-04T09:30:32.609Z,-11261.75
2023-04-04T09:33:40.551Z,-11232.75
2023-04-04T09:36:47.820Z,-11247.69
2023-04-04T09:39:54.431Z,-11253.88
2023-04-04T09:43:04.754Z,-11245.56
2023-04-04T09:46:12.492Z,-11286.78
2023-04-04T09:49:21.739Z,-11257.25
2023-04-04T09:52:28.330Z,-11254.28
2023-04-04T09:55:36.576Z,-11263.31
2023-04-04T09:59:02.626Z,-11258.94
2023-04-04T10:02:12.131Z,-11292.72
2023-04-04T10:05:19.846Z,-11289.06
2023-04-04T10:08:29.055Z,-11313.84
2023-04-04T10:11:38.722Z,-11326.50
2023-04-04T10:14:44.916Z,-11303.13
2023-04-04T10:17:55.646Z,-11272.72
2023-04-04T10:21:14.664Z,-11301.72
2023-04-04T10:24:22.371Z,-11301.44
2023-04-04T10:27:29.089Z,-11274.97
2023-04-04T10:30:55.707Z,-11299.63
2023-04-04T10:34:18.735Z,-11264.72
2023-04-04T10:37:28.567Z,-11283.13
2023-04-04T10:40:39.056Z,-11303.69
2023-04-04T10:43:48.752Z,-11299.75
2023-04-04T10:46:56.815Z,-11278.78
2023-04-04T10:50:09.240Z,-11299.19
2023-04-04T10:53:16.260Z,-11327.06
2023-04-04T10:56:23.276Z,-11326.66
2023-04-04T10:59:30.024Z,-11295.09
2023-04-04T11:02:48.017Z,-11318.91
2023-04-04T11:06:01.873Z,-11317.22
2023-04-04T11:09:08.588Z,-11294.13
2023-04-04T11:12:20.196Z,-11299.34
2023-04-04T11:15:27.740Z,-11327.34
2023-04-04T11:18:49.985Z,-11321.00
2023-04-04T11:21:59.032Z,-11300.88
2023-04-04T11:25:38.437Z,-11320.72
2023-04-04T11:28:46.652Z,-11316.09
2023-04-04T11:31:53.331Z,-11309.19
2023-04-04T11:34:59.804Z,-11330.72
2023-04-04T11:38:14.763Z,-11319.75
2023-04-04T11:41:21.535Z,-11322.28
2023-04-04T11:44:30.699Z,-11332.69
2023-04-04T11:47:37.501Z,-11314.13
2023-04-04T11:50:44.727Z,-11366.78
2023-04-04T11:53:53.823Z,-11340.72
2023-04-04T11:57:00.294Z,-11378.34
2023-04-04T12:00:09.196Z,-11404.13
2023-04-04T12:03:18.731Z,-11403.56
2023-04-04T12:06:25.574Z,-11415.25
2023-04-04T12:09:34.763Z,-11406.25
2023-04-04T12:12:41.888Z,-11399.06
2023-04-04T12:15:49.621Z,-11372.28
2023-04-04T12:18:55.903Z,-11313.00
2023-04-04T12:22:05.186Z,-11323.69
2023-04-04T12:25:13.107Z,-11279.91
2023-04-04T12:28:20.193Z,-11307.91
2023-04-04T12:31:27.304Z,-11323.41
2023-04-04T12:34:35.418Z,-11351.44
2023-04-04T12:37:41.590Z,-11334.66
2023-04-04T12:40:49.171Z,-11328.19
2023-04-04T12:44:02.827Z,-11302.84
2023-04-04T12:47:10.797Z,-11295.66
2023-04-04T12:50:24.339Z,-11326.94
2023-04-04T12:53:33.128Z,-11298.91
2023-04-04T12:56:41.910Z,-11291.44
2023-04-04T12:59:48.993Z,-11291.72
2023-04-04T13:02:56.662Z,-11275.97
2023-04-04T13:06:02.803Z,-11296.78
2023-04-04T13:09:19.046Z,-11287.78
2023-04-04T13:12:26.790Z,-11264.84
2023-04-04T13:15:54.598Z,-11296.38
2023-04-04T13:19:01.054Z,-11275.53
2023-04-04T13:22:09.973Z,-11264.72
2023-04-04T13:25:16.364Z,-11260.06
2023-04-04T13:28:23.931Z,-11281.31
2023-04-04T13:31:30.402Z,-11247.97
2023-04-04T13:34:37.268Z,-11259.50
2023-04-04T13:37:43.491Z,-11264.00
2023-04-04T13:40:49.812Z,-11258.94
2023-04-04T13:43:57.627Z,-11246.00
2023-04-04T13:47:04.070Z,-11229.25
2023-04-04T13:50:11.092Z,-11236.84
2023-04-04T13:53:17.313Z,-11221.78
2023-04-04T13:56:23.525Z,-11220.53
2023-04-04T13:59:31.936Z,-11233.47
2023-04-04T14:02:38.531Z,-11212.22
2023-04-04T14:05:45.073Z,-11234.47
2023-04-04T14:08:51.328Z,-11217.84
2023-04-04T14:11:57.440Z,-11209.41
2023-04-04T14:15:07.503Z,-11226.28
2023-04-04T14:18:13.826Z,-11206.19
2023-04-04T14:21:20.114Z,-11208.84
2023-04-04T14:24:26.495Z,-11220.53
2023-04-04T14:27:32.931Z,-11230.50
2023-04-04T14:30:40.772Z,-11253.16
2023-04-04T14:33:47.066Z,-11226.56
2023-04-04T14:36:53.526Z,-11202.09
2023-04-04T14:40:00.430Z,-11206.88
2023-04-04T14:43:07.899Z,-11214.75
2023-04-04T14:46:15.943Z,-11190.56
2023-04-04T14:49:22.250Z,-11190.84
2023-04-04T14:52:30.507Z,-11177.34
2023-04-04T14:55:36.608Z,-11172.72
2023-04-04T14:58:43.032Z,-11178.47
2023-04-04T15:01:50.757Z,-11190.72
2023-04-04T15:04:57.233Z,-11174.25
2023-04-04T15:08:03.373Z,-11166.97
2023-04-04T15:11:10.160Z,-11167.38
2023-04-04T15:14:16.117Z,-11175.81
2023-04-04T15:17:23.623Z,-11172.88
2023-04-04T15:20:29.765Z,-11173.44
2023-04-04T15:23:36.603Z,-11165.00
2023-04-04T15:26:42.938Z,-11163.44
2023-04-04T15:29:49.001Z,-11171.59
2023-04-04T15:32:57.543Z,-11176.78
2023-04-04T15:36:03.776Z,-11164.56
2023-04-04T15:39:11.266Z,-11159.38
2023-04-04T15:42:17.898Z,-11162.19
2023-04-04T15:45:24.252Z,-11170.06
2023-04-04T15:48:32.241Z,-11167.25
2023-04-04T15:51:39.685Z,-11173.44
2023-04-04T15:54:46.178Z,-11180.16
2023-04-04T15:57:52.610Z,-11167.94
2023-04-04T16:00:58.773Z,-11182.13
2023-04-04T16:04:06.475Z,-11172.72
2023-04-04T16:07:12.866Z,-11173.56
2023-04-04T16:10:19.507Z,-11169.78
2023-04-04T16:13:25.769Z,-11172.88
2023-04-04T16:16:32.164Z,-11170.34
2023-04-04T16:19:39.858Z,-11165.13
2023-04-04T16:22:46.060Z,-11159.09
2023-04-04T16:25:52.479Z,-11164.56
2023-04-04T16:28:58.817Z,-11160.50
2023-04-04T16:32:06.627Z,-11169.06
2023-04-04T16:35:14.582Z,-11158.53
2023-04-04T16:38:20.741Z,-11146.16
2023-04-04T16:41:27.702Z,-11147.13
2023-04-04T16:44:34.275Z,-11139.41
2023-04-04T16:47:40.581Z,-11141.09
2023-04-04T16:50:48.260Z,-11144.63
2023-04-04T16:53:54.924Z,-11147.97
2023-04-04T16:57:01.261Z,-11138.56
2023-04-04T17:00:10.177Z,-11141.66
2023-04-04T17:03:16.516Z,-11131.81
2023-04-04T17:06:24.454Z,-11130.56
2023-04-04T17:09:31.504Z,-11136.19
2023-04-04T17:12:37.992Z,-11133.78
2023-04-04T17:15:44.270Z,-11130.97
2023-04-04T17:18:50.463Z,-11128.47
2023-04-04T17:21:58.313Z,-11122.41
2023-04-04T17:25:04.923Z,-11128.75
2023-04-04T17:28:10.931Z,-11121.16
2023-04-04T17:31:17.731Z,-11119.75
2023-04-04T17:34:24.451Z,-11116.94
2023-04-04T17:37:32.432Z,-11112.72
2023-04-04T17:40:40.935Z,-11107.69
2023-04-04T17:43:47.549Z,-11113.44
2023-04-04T17:46:55.372Z,-11115.97
2023-04-04T17:50:01.707Z,-11106.56
2023-04-04T17:53:09.831Z,-11108.50
2023-04-04T17:56:16.105Z,-11107.53
2023-04-04T17:59:22.525Z,-11107.69
2023-04-04T18:02:28.746Z,-11098.97
2023-04-04T18:05:35.256Z,-11106.84
2023-04-04T18:08:42.839Z,-11106.69
2023-04-04T18:11:49.170Z,-11097.69
2023-04-04T18:14:55.391Z,-11101.22
2023-04-04T18:18:02.266Z,-11096.44
2023-04-04T18:21:09.002Z,-11101.34
2023-04-04T18:24:16.686Z,-11107.13
2023-04-04T18:27:23.084Z,-11091.53
2023-04-04T18:30:29.366Z,-11099.53
2023-04-04T18:33:35.732Z,-11085.19
2023-04-04T18:36:42.396Z,-11084.91
2023-04-04T18:39:50.322Z,-11086.47
2023-04-04T18:42:56.737Z,-11085.47
2023-04-04T18:46:05.183Z,-11091.66
2023-04-04T18:49:12.642Z,-11096.28
2023-04-04T18:52:18.885Z,-11085.47
2023-04-04T18:55:26.700Z,-11081.84
2023-04-04T18:58:33.890Z,-11077.34
2023-04-04T19:01:40.407Z,-11082.94
2023-04-04T19:04:48.424Z,-11081.00
2023-04-04T19:07:55.575Z,-11084.63
2023-04-04T19:11:03.400Z,-11086.19
2023-04-04T19:14:09.711Z,-11076.06
2023-04-04T19:17:18.171Z,-11068.34
2023-04-04T19:20:24.503Z,-11075.53
2023-04-04T19:23:30.975Z,-11072.72
2023-04-04T19:26:38.704Z,-11070.31
2023-04-04T19:29:45.120Z,-11071.72
2023-04-04T19:32:51.037Z,-11075.94
2023-04-04T19:36:00.513Z,-11075.09
2023-04-04T19:39:06.738Z,-11078.03
2023-04-04T19:42:14.084Z,-11068.91
2023-04-04T19:45:47.904Z,-11064.44
2023-04-04T19:48:55.900Z,-11067.78
2023-04-04T19:52:04.545Z,-11065.97
2023-04-04T19:55:11.271Z,-11060.78
2023-04-04T19:58:22.945Z,-11067.09
2023-04-04T20:01:30.132Z,-11067.37
2023-04-04T20:04:36.412Z,-11059.66
2023-04-04T20:07:42.433Z,-11066.38
2023-04-04T20:10:48.615Z,-11064.72
2023-04-04T20:13:57.643Z,-11067.37
2023-04-04T20:17:04.005Z,-11062.75
2023-04-04T20:20:13.282Z,-11066.25
2023-04-04T20:23:19.991Z,-11052.78
2023-04-04T20:26:51.416Z,-11063.31
2023-04-04T20:29:59.179Z,-11059.25
2023-04-04T20:33:25.441Z,-11056.28
2023-04-04T20:36:33.931Z,-11061.06
2023-04-04T20:39:44.031Z,-11054.88
2023-04-04T20:42:50.008Z,-11052.63
2023-04-04T20:45:57.625Z,-11057.84
2023-04-04T20:49:04.267Z,-11058.25
2023-04-04T20:52:24.705Z,-11057.13
2023-04-04T20:55:33.464Z,-11065.69
2023-04-04T20:58:40.139Z,-11046.31
2023-04-04T21:01:48.444Z,-11049.41
2023-04-04T21:04:54.656Z,-11048.84
2023-04-04T21:08:01.662Z,-11065.13
2023-04-04T21:11:08.391Z,-11055.44
2023-04-04T21:14:23.469Z,-11042.97
2023-04-04T21:17:31.217Z,-11056.72
2023-04-04T21:21:16.749Z,-11052.78
2023-04-04T21:24:23.516Z,-11049.00
2023-04-04T21:27:35.997Z,-11052.63
2023-04-04T21:30:45.248Z,-11049.00
2023-04-04T21:33:54.532Z,-11045.63
2023-04-04T21:37:02.882Z,-11034.97
2023-04-04T21:40:10.714Z,-11055.03
2023-04-04T21:43:16.802Z,-11035.81
2023-04-04T21:46:26.956Z,-11041.41
2023-04-04T21:49:34.788Z,-11033.00
2023-04-04T21:52:42.325Z,-11042.81
2023-04-04T21:55:48.932Z,-11042.41
2023-04-04T21:58:56.619Z,-11043.09
2023-04-04T22:02:02.959Z,-11030.19
2023-04-04T22:05:11.148Z,-11036.94
2023-04-04T22:08:17.881Z,-11034.41
2023-04-04T22:11:26.217Z,-11046.19
2023-04-04T22:14:32.456Z,-11037.78
2023-04-04T22:17:38.718Z,-11049.97
2023-04-04T22:20:47.978Z,-11049.28
2023-04-04T22:23:54.707Z,-11048.72
2023-04-04T22:27:03.549Z,-11048.44
2023-04-04T22:30:10.675Z,-11049.00
2023-04-04T22:33:16.737Z,-11038.88
2023-04-04T22:36:25.381Z,-11051.38
2023-04-04T22:39:33.234Z,-11044.22
2023-04-04T22:42:39.043Z,-11042.53
2023-04-04T22:45:45.104Z,-11057.13
2023-04-04T22:48:51.210Z,-11040.44
2023-04-04T22:52:00.015Z,-11049.00
2023-04-04T22:55:07.531Z,-11049.28
2023-04-04T22:58:13.574Z,-11038.47
2023-04-04T23:01:19.571Z,-11045.06
2023-04-04T23:04:26.680Z,-11039.31
2023-04-04T23:07:34.061Z,-11032.28
2023-04-04T23:10:40.581Z,-11036.22
2023-04-04T23:13:47.271Z,-11037.91
2023-04-04T23:16:56.990Z,-11033.41
2023-04-04T23:20:08.423Z,-11030.19
2023-04-04T23:23:16.217Z,-11036.09
2023-04-04T23:26:22.233Z,-11041.00
2023-04-04T23:29:28.185Z,-11034.25
2023-04-04T23:32:35.367Z,-11038.75
2023-04-04T23:35:42.157Z,-11026.53
2023-04-04T23:38:49.734Z,-11022.06
2023-04-04T23:41:56.392Z,-11030.75
2023-04-04T23:45:02.665Z,-11020.09
2023-04-04T23:48:09.202Z,-11027.66
2023-04-04T23:51:16.323Z,-11020.22
2023-04-04T23:54:24.232Z,-11019.53
2023-04-04T23:57:30.442Z,-11023.59
